Arvada, WY (82831)

2:52 PM MDT on July 22, 2017 (GMT -0600)
Johnson County | | Change Station

Elev 4967 ft 44.38 °N, 106.72 °W | Updated 59 minutes ago

Clear
Clear
83 °F
Feels Like 83 °F
N
0
Wind Variable Wind from North

Today
High -- | Low -- °F
--% Chance of Precip.
Yesterday
High -- | Low -- °F
Precip. -- in
Pressure 30.02 in
Visibility 7.0 miles
Clouds Clear
Dew Point 28 °F
Humidity 14%
Rainfall 0.00 in
Snow Depth Not available.
5:40 AM 8:40 PM
Waning Crescent, 0% visible
METAR KBYG 221953Z AUTO 00000KT 7SM CLR 28/M02 A3021 RMK AO2 SLP166 T02831022
Pressure 30.02 in
Visibility 7.0 miles
Clouds Clear
Dew Point 28 °F
Humidity 14%
Rainfall 0.00 in
Snow Depth Not available.
5:40 AM 8:40 PM
Waning Crescent, 0% visible
METAR KBYG 221953Z AUTO 00000KT 7SM CLR 28/M02 A3021 RMK AO2 SLP166 T02831022

Get Severe Weather Alerts

Thanks for signing up!

Be on the lookout for a verification email in your inbox.

You'll start receiving the daily forecast at 6 AM.

×

10-Day Weather Forecast

Almanac

Astronomy

Jul. 22, 2017 Rise Set
Actual Time
Civil Twilight
Nautical Twilight
Astronomical Twilight
Moon
Length of Visible Light
Length of Day
Tomorrow will be .
, % of the Moon is Illuminated

Today's Extremes

State Highs State Lows

Community

WunderPhotos

Category 6

Welcome to Category 6. This is the collective home for Weather Underground's featured writeups by Dr. Jeff Masters (right), Bob Henson (left), Chris Burt, and other regular contributors.

Nearby

Air Quality

  Air Quality AQ Index Pollutant
Not available.

Snow Depth

Station Depth Elevation

Earthquake Activity

City Distance Mag. Time & Date
Minimum magnitude displayed is 2.5.

Coastal Water Temperatures

Place Temperature

Stations

Nearby Weather Stations

Station Location Temp. Windchill Dew Point Humidity Wind Precip. Elev Updated Type
                   

Watches & Warnings

There are currently no watches in effect.